sensor_id;sensor_type;location;lat;lon;timestamp;P1;durP1;ratioP1;P2;durP2;ratioP2
76113;SDS011;64845;53.086;5.834;2022-11-24T00:01:08;21.58;;;5.93;;
76113;SDS011;64845;53.086;5.834;2022-11-24T00:03:35;24.80;;;7.35;;
76113;SDS011;64845;53.086;5.834;2022-11-24T00:06:01;25.27;;;6.50;;
76113;SDS011;64845;53.086;5.834;2022-11-24T00:08:28;23.10;;;6.15;;
76113;SDS011;64845;53.086;5.834;2022-11-24T00:10:53;24.75;;;6.03;;
76113;SDS011;64845;53.086;5.834;2022-11-24T00:13:19;34.42;;;6.88;;
76113;SDS011;64845;53.086;5.834;2022-11-24T00:15:44;25.42;;;6.10;;
76113;SDS011;64845;53.086;5.834;2022-11-24T00:18:09;32.55;;;6.47;;
76113;SDS011;64845;53.086;5.834;2022-11-24T00:20:35;28.20;;;6.95;;
76113;SDS011;64845;53.086;5.834;2022-11-24T00:23:00;27.50;;;6.75;;
76113;SDS011;64845;53.086;5.834;2022-11-24T00:25:25;33.80;;;5.82;;
76113;SDS011;64845;53.086;5.834;2022-11-24T00:27:51;18.92;;;6.03;;
76113;SDS011;64845;53.086;5.834;2022-11-24T00:30:16;25.15;;;6.25;;
76113;SDS011;64845;53.086;5.834;2022-11-24T00:32:42;28.45;;;6.18;;
76113;SDS011;64845;53.086;5.834;2022-11-24T00:35:07;30.20;;;6.82;;
76113;SDS011;64845;53.086;5.834;2022-11-24T00:37:33;34.42;;;6.32;;
76113;SDS011;64845;53.086;5.834;2022-11-24T00:39:58;24.17;;;5.93;;
76113;SDS011;64845;53.086;5.834;2022-11-24T00:42:23;33.67;;;7.07;;
76113;SDS011;64845;53.086;5.834;2022-11-24T00:44:49;36.20;;;6.35;;
76113;SDS011;64845;53.086;5.834;2022-11-24T00:47:14;33.00;;;6.53;;
76113;SDS011;64845;53.086;5.834;2022-11-24T00:49:39;31.17;;;5.25;;
76113;SDS011;64845;53.086;5.834;2022-11-24T00:52:05;32.30;;;5.55;;
76113;SDS011;64845;53.086;5.834;2022-11-24T00:54:30;28.38;;;5.55;;
76113;SDS011;64845;53.086;5.834;2022-11-24T00:56:55;28.95;;;4.70;;
76113;SDS011;64845;53.086;5.834;2022-11-24T00:59:21;41.17;;;5.72;;
76113;SDS011;64845;53.086;5.834;2022-11-24T01:01:46;27.83;;;5.18;;
76113;SDS011;64845;53.086;5.834;2022-11-24T01:04:11;39.17;;;5.10;;
76113;SDS011;64845;53.086;5.834;2022-11-24T01:06:37;31.83;;;5.03;;
76113;SDS011;64845;53.086;5.834;2022-11-24T01:09:02;30.33;;;5.00;;
76113;SDS011;64845;53.086;5.834;2022-11-24T01:11:29;40.75;;;6.22;;
76113;SDS011;64845;53.086;5.834;2022-11-24T01:14:20;30.33;;;4.72;;
76113;SDS011;64845;53.086;5.834;2022-11-24T01:16:47;36.97;;;5.22;;
76113;SDS011;64845;53.086;5.834;2022-11-24T01:19:13;33.67;;;5.57;;
76113;SDS011;64845;53.086;5.834;2022-11-24T01:21:39;28.55;;;5.57;;
76113;SDS011;64845;53.086;5.834;2022-11-24T01:24:04;33.72;;;5.65;;
76113;SDS011;64845;53.086;5.834;2022-11-24T01:26:30;29.60;;;5.05;;
76113;SDS011;64845;53.086;5.834;2022-11-24T01:28:55;29.13;;;5.20;;
76113;SDS011;64845;53.086;5.834;2022-11-24T01:31:23;33.15;;;5.13;;
76113;SDS011;64845;53.086;5.834;2022-11-24T01:33:49;29.92;;;5.07;;
76113;SDS011;64845;53.086;5.834;2022-11-24T01:36:14;28.30;;;5.50;;
76113;SDS011;64845;53.086;5.834;2022-11-24T01:38:40;25.98;;;4.05;;
76113;SDS011;64845;53.086;5.834;2022-11-24T01:43:41;35.83;;;4.82;;
76113;SDS011;64845;53.086;5.834;2022-11-24T01:51:32;31.13;;;4.30;;
76113;SDS011;64845;53.086;5.834;2022-11-24T01:54:05;29.55;;;4.57;;
76113;SDS011;64845;53.086;5.834;2022-11-24T01:56:33;33.20;;;4.07;;
76113;SDS011;64845;53.086;5.834;2022-11-24T01:59:01;24.05;;;3.75;;
76113;SDS011;64845;53.086;5.834;2022-11-24T02:01:30;24.00;;;4.22;;
76113;SDS011;64845;53.086;5.834;2022-11-24T02:03:56;32.33;;;4.38;;
76113;SDS011;64845;53.086;5.834;2022-11-24T02:06:22;28.73;;;5.65;;
76113;SDS011;64845;53.086;5.834;2022-11-24T02:09:02;31.73;;;4.10;;
76113;SDS011;64845;53.086;5.834;2022-11-24T02:11:33;22.05;;;3.22;;
76113;SDS011;64845;53.086;5.834;2022-11-24T02:14:02;25.60;;;3.65;;
76113;SDS011;64845;53.086;5.834;2022-11-24T02:16:29;25.67;;;3.83;;
76113;SDS011;64845;53.086;5.834;2022-11-24T02:18:54;20.35;;;3.72;;
76113;SDS011;64845;53.086;5.834;2022-11-24T02:21:20;28.13;;;3.78;;
76113;SDS011;64845;53.086;5.834;2022-11-24T02:28:51;15.38;;;3.88;;
76113;SDS011;64845;53.086;5.834;2022-11-24T02:31:17;26.13;;;3.95;;
76113;SDS011;64845;53.086;5.834;2022-11-24T02:33:42;23.00;;;3.92;;
76113;SDS011;64845;53.086;5.834;2022-11-24T02:36:08;26.88;;;4.07;;
76113;SDS011;64845;53.086;5.834;2022-11-24T02:38:34;23.15;;;3.58;;
76113;SDS011;64845;53.086;5.834;2022-11-24T02:41:01;25.63;;;3.65;;
76113;SDS011;64845;53.086;5.834;2022-11-24T02:43:31;19.30;;;2.95;;
76113;SDS011;64845;53.086;5.834;2022-11-24T02:46:00;20.25;;;3.00;;
76113;SDS011;64845;53.086;5.834;2022-11-24T02:48:26;20.13;;;3.65;;
76113;SDS011;64845;53.086;5.834;2022-11-24T02:50:52;25.25;;;4.00;;
76113;SDS011;64845;53.086;5.834;2022-11-24T02:53:17;23.08;;;3.17;;
76113;SDS011;64845;53.086;5.834;2022-11-24T02:55:43;15.70;;;3.40;;
76113;SDS011;64845;53.086;5.834;2022-11-24T02:58:08;17.33;;;3.45;;
76113;SDS011;64845;53.086;5.834;2022-11-24T03:00:34;21.20;;;4.25;;
76113;SDS011;64845;53.086;5.834;2022-11-24T03:02:59;21.40;;;3.50;;
76113;SDS011;64845;53.086;5.834;2022-11-24T03:05:25;26.50;;;3.42;;
76113;SDS011;64845;53.086;5.834;2022-11-24T03:07:50;26.25;;;4.20;;
76113;SDS011;64845;53.086;5.834;2022-11-24T03:10:15;25.52;;;3.97;;
76113;SDS011;64845;53.086;5.834;2022-11-24T03:12:41;23.35;;;4.22;;
76113;SDS011;64845;53.086;5.834;2022-11-24T03:15:06;27.33;;;3.60;;
76113;SDS011;64845;53.086;5.834;2022-11-24T03:17:33;25.30;;;3.55;;
76113;SDS011;64845;53.086;5.834;2022-11-24T03:20:01;19.48;;;3.35;;
76113;SDS011;64845;53.086;5.834;2022-11-24T03:22:27;23.58;;;3.78;;
76113;SDS011;64845;53.086;5.834;2022-11-24T03:24:53;21.25;;;3.22;;
76113;SDS011;64845;53.086;5.834;2022-11-24T03:27:18;26.20;;;3.70;;
76113;SDS011;64845;53.086;5.834;2022-11-24T03:29:44;20.42;;;3.45;;
76113;SDS011;64845;53.086;5.834;2022-11-24T03:32:10;24.95;;;3.30;;
76113;SDS011;64845;53.086;5.834;2022-11-24T03:34:35;22.52;;;3.53;;
76113;SDS011;64845;53.086;5.834;2022-11-24T03:37:01;25.67;;;3.53;;
76113;SDS011;64845;53.086;5.834;2022-11-24T03:39:26;15.77;;;2.85;;
76113;SDS011;64845;53.086;5.834;2022-11-24T03:41:51;20.95;;;3.80;;
76113;SDS011;64845;53.086;5.834;2022-11-24T03:44:17;15.40;;;2.97;;
76113;SDS011;64845;53.086;5.834;2022-11-24T03:46:42;26.20;;;3.13;;
76113;SDS011;64845;53.086;5.834;2022-11-24T03:49:08;20.80;;;3.20;;
76113;SDS011;64845;53.086;5.834;2022-11-24T03:51:34;24.58;;;3.90;;
76113;SDS011;64845;53.086;5.834;2022-11-24T03:53:59;25.90;;;3.53;;
76113;SDS011;64845;53.086;5.834;2022-11-24T03:56:24;18.42;;;3.03;;
76113;SDS011;64845;53.086;5.834;2022-11-24T03:58:50;18.30;;;3.35;;
76113;SDS011;64845;53.086;5.834;2022-11-24T04:01:15;21.60;;;3.20;;
76113;SDS011;64845;53.086;5.834;2022-11-24T04:03:41;18.85;;;3.35;;
76113;SDS011;64845;53.086;5.834;2022-11-24T04:06:06;18.58;;;3.47;;
76113;SDS011;64845;53.086;5.834;2022-11-24T04:08:31;23.10;;;3.67;;
76113;SDS011;64845;53.086;5.834;2022-11-24T04:10:57;19.90;;;3.20;;
76113;SDS011;64845;53.086;5.834;2022-11-24T04:13:23;23.67;;;3.45;;
76113;SDS011;64845;53.086;5.834;2022-11-24T04:15:49;17.92;;;2.70;;
76113;SDS011;64845;53.086;5.834;2022-11-24T04:18:15;19.40;;;3.08;;
76113;SDS011;64845;53.086;5.834;2022-11-24T04:20:41;20.88;;;3.47;;
76113;SDS011;64845;53.086;5.834;2022-11-24T04:23:07;25.15;;;3.63;;
76113;SDS011;64845;53.086;5.834;2022-11-24T04:25:33;18.63;;;3.55;;
76113;SDS011;64845;53.086;5.834;2022-11-24T04:27:59;16.15;;;3.75;;
76113;SDS011;64845;53.086;5.834;2022-11-24T04:30:25;16.45;;;2.83;;
76113;SDS011;64845;53.086;5.834;2022-11-24T04:32:51;19.80;;;3.10;;
76113;SDS011;64845;53.086;5.834;2022-11-24T04:35:17;21.77;;;3.17;;
76113;SDS011;64845;53.086;5.834;2022-11-24T04:37:42;22.27;;;3.45;;
76113;SDS011;64845;53.086;5.834;2022-11-24T04:40:08;18.55;;;2.85;;
76113;SDS011;64845;53.086;5.834;2022-11-24T04:42:34;26.92;;;4.03;;
76113;SDS011;64845;53.086;5.834;2022-11-24T04:45:00;25.83;;;3.20;;
76113;SDS011;64845;53.086;5.834;2022-11-24T04:47:26;19.13;;;3.30;;
76113;SDS011;64845;53.086;5.834;2022-11-24T04:49:52;22.98;;;3.30;;
76113;SDS011;64845;53.086;5.834;2022-11-24T04:52:19;24.98;;;3.13;;
76113;SDS011;64845;53.086;5.834;2022-11-24T04:54:46;26.88;;;3.60;;
76113;SDS011;64845;53.086;5.834;2022-11-24T04:57:16;18.52;;;3.50;;
76113;SDS011;64845;53.086;5.834;2022-11-24T04:59:43;22.33;;;4.00;;
76113;SDS011;64845;53.086;5.834;2022-11-24T05:02:08;19.42;;;3.00;;
76113;SDS011;64845;53.086;5.834;2022-11-24T05:04:34;23.27;;;3.33;;
76113;SDS011;64845;53.086;5.834;2022-11-24T05:07:00;20.38;;;3.67;;
76113;SDS011;64845;53.086;5.834;2022-11-24T05:09:25;15.20;;;3.13;;
76113;SDS011;64845;53.086;5.834;2022-11-24T05:11:51;22.77;;;3.20;;
76113;SDS011;64845;53.086;5.834;2022-11-24T05:14:16;19.67;;;3.80;;
76113;SDS011;64845;53.086;5.834;2022-11-24T05:16:41;24.15;;;3.45;;
76113;SDS011;64845;53.086;5.834;2022-11-24T05:19:07;19.70;;;3.92;;
76113;SDS011;64845;53.086;5.834;2022-11-24T05:21:32;21.15;;;2.97;;
76113;SDS011;64845;53.086;5.834;2022-11-24T05:23:57;25.30;;;3.20;;
76113;SDS011;64845;53.086;5.834;2022-11-24T05:26:23;18.27;;;2.97;;
76113;SDS011;64845;53.086;5.834;2022-11-24T05:28:48;25.27;;;3.25;;
76113;SDS011;64845;53.086;5.834;2022-11-24T05:31:13;24.10;;;3.92;;
76113;SDS011;64845;53.086;5.834;2022-11-24T05:33:39;18.55;;;3.17;;
76113;SDS011;64845;53.086;5.834;2022-11-24T05:36:05;26.70;;;3.40;;
76113;SDS011;64845;53.086;5.834;2022-11-24T05:38:31;24.75;;;3.00;;
76113;SDS011;64845;53.086;5.834;2022-11-24T05:41:00;20.90;;;3.47;;
76113;SDS011;64845;53.086;5.834;2022-11-24T05:43:26;22.98;;;3.17;;
76113;SDS011;64845;53.086;5.834;2022-11-24T05:45:52;29.98;;;3.63;;
76113;SDS011;64845;53.086;5.834;2022-11-24T05:48:17;15.85;;;3.80;;
76113;SDS011;64845;53.086;5.834;2022-11-24T05:50:43;18.85;;;3.45;;
76113;SDS011;64845;53.086;5.834;2022-11-24T05:53:09;22.75;;;3.60;;
76113;SDS011;64845;53.086;5.834;2022-11-24T05:55:36;16.05;;;2.97;;
76113;SDS011;64845;53.086;5.834;2022-11-24T05:58:07;17.90;;;2.97;;
76113;SDS011;64845;53.086;5.834;2022-11-24T06:00:34;23.58;;;3.30;;
76113;SDS011;64845;53.086;5.834;2022-11-24T06:03:00;18.15;;;3.00;;
76113;SDS011;64845;53.086;5.834;2022-11-24T06:05:26;20.60;;;3.88;;
76113;SDS011;64845;53.086;5.834;2022-11-24T06:07:53;13.52;;;3.75;;
76113;SDS011;64845;53.086;5.834;2022-11-24T06:10:19;17.67;;;3.25;;
76113;SDS011;64845;53.086;5.834;2022-11-24T06:12:47;17.83;;;3.42;;
76113;SDS011;64845;53.086;5.834;2022-11-24T06:15:13;22.85;;;3.45;;
76113;SDS011;64845;53.086;5.834;2022-11-24T06:17:38;23.77;;;3.90;;
76113;SDS011;64845;53.086;5.834;2022-11-24T06:20:04;30.92;;;6.05;;
76113;SDS011;64845;53.086;5.834;2022-11-24T06:22:31;19.05;;;3.45;;
76113;SDS011;64845;53.086;5.834;2022-11-24T06:24:56;22.95;;;3.42;;
76113;SDS011;64845;53.086;5.834;2022-11-24T06:27:22;19.35;;;3.38;;
76113;SDS011;64845;53.086;5.834;2022-11-24T06:29:47;17.33;;;3.33;;
76113;SDS011;64845;53.086;5.834;2022-11-24T06:32:13;15.02;;;3.55;;
76113;SDS011;64845;53.086;5.834;2022-11-24T06:34:39;13.45;;;3.08;;
76113;SDS011;64845;53.086;5.834;2022-11-24T06:37:04;17.92;;;3.15;;
76113;SDS011;64845;53.086;5.834;2022-11-24T06:39:30;15.13;;;3.40;;
76113;SDS011;64845;53.086;5.834;2022-11-24T06:41:55;18.67;;;3.58;;
76113;SDS011;64845;53.086;5.834;2022-11-24T06:44:21;14.15;;;3.25;;
76113;SDS011;64845;53.086;5.834;2022-11-24T06:46:46;18.42;;;3.28;;
76113;SDS011;64845;53.086;5.834;2022-11-24T06:49:27;18.42;;;2.83;;
76113;SDS011;64845;53.086;5.834;2022-11-24T06:51:53;15.18;;;2.95;;
76113;SDS011;64845;53.086;5.834;2022-11-24T06:54:19;22.73;;;5.20;;
76113;SDS011;64845;53.086;5.834;2022-11-24T06:56:45;15.10;;;3.17;;
76113;SDS011;64845;53.086;5.834;2022-11-24T06:59:15;15.45;;;3.10;;
76113;SDS011;64845;53.086;5.834;2022-11-24T07:01:42;16.20;;;2.58;;
76113;SDS011;64845;53.086;5.834;2022-11-24T07:04:08;19.15;;;3.45;;
76113;SDS011;64845;53.086;5.834;2022-11-24T07:06:34;14.13;;;2.92;;
76113;SDS011;64845;53.086;5.834;2022-11-24T07:08:59;13.55;;;2.92;;
76113;SDS011;64845;53.086;5.834;2022-11-24T07:11:25;23.80;;;3.17;;
76113;SDS011;64845;53.086;5.834;2022-11-24T07:13:50;11.80;;;2.33;;
76113;SDS011;64845;53.086;5.834;2022-11-24T07:18:44;11.43;;;2.90;;
76113;SDS011;64845;53.086;5.834;2022-11-24T07:21:10;14.38;;;2.85;;
76113;SDS011;64845;53.086;5.834;2022-11-24T07:23:36;13.13;;;2.65;;
76113;SDS011;64845;53.086;5.834;2022-11-24T07:26:02;11.38;;;2.90;;
76113;SDS011;64845;53.086;5.834;2022-11-24T07:28:31;13.85;;;3.45;;
76113;SDS011;64845;53.086;5.834;2022-11-24T07:30:57;14.65;;;2.75;;
76113;SDS011;64845;53.086;5.834;2022-11-24T07:33:22;12.05;;;2.47;;
76113;SDS011;64845;53.086;5.834;2022-11-24T07:35:51;11.77;;;2.50;;
76113;SDS011;64845;53.086;5.834;2022-11-24T07:38:17;13.80;;;2.58;;
76113;SDS011;64845;53.086;5.834;2022-11-24T07:40:43;15.15;;;2.80;;
76113;SDS011;64845;53.086;5.834;2022-11-24T07:43:08;10.95;;;2.25;;
76113;SDS011;64845;53.086;5.834;2022-11-24T07:45:34;17.30;;;2.90;;
76113;SDS011;64845;53.086;5.834;2022-11-24T07:47:59;12.20;;;2.45;;
76113;SDS011;64845;53.086;5.834;2022-11-24T07:50:24;11.82;;;2.50;;
76113;SDS011;64845;53.086;5.834;2022-11-24T07:52:50;15.30;;;2.72;;
76113;SDS011;64845;53.086;5.834;2022-11-24T07:55:15;11.82;;;2.50;;
76113;SDS011;64845;53.086;5.834;2022-11-24T07:57:41;13.93;;;2.90;;
76113;SDS011;64845;53.086;5.834;2022-11-24T08:00:06;10.93;;;2.50;;
76113;SDS011;64845;53.086;5.834;2022-11-24T08:02:32;11.73;;;2.33;;
76113;SDS011;64845;53.086;5.834;2022-11-24T08:04:58;12.88;;;2.88;;
76113;SDS011;64845;53.086;5.834;2022-11-24T08:07:23;10.32;;;2.40;;
76113;SDS011;64845;53.086;5.834;2022-11-24T08:09:48;11.00;;;2.83;;
76113;SDS011;64845;53.086;5.834;2022-11-24T08:12:14;12.60;;;2.47;;
76113;SDS011;64845;53.086;5.834;2022-11-24T08:14:41;13.13;;;2.92;;
76113;SDS011;64845;53.086;5.834;2022-11-24T08:17:07;17.45;;;2.83;;
76113;SDS011;64845;53.086;5.834;2022-11-24T08:19:32;11.88;;;2.70;;
76113;SDS011;64845;53.086;5.834;2022-11-24T08:21:58;14.38;;;3.20;;
76113;SDS011;64845;53.086;5.834;2022-11-24T08:24:25;11.23;;;2.20;;
76113;SDS011;64845;53.086;5.834;2022-11-24T08:26:51;19.77;;;3.03;;
76113;SDS011;64845;53.086;5.834;2022-11-24T08:29:16;15.60;;;2.83;;
76113;SDS011;64845;53.086;5.834;2022-11-24T08:31:41;11.98;;;2.67;;
76113;SDS011;64845;53.086;5.834;2022-11-24T08:34:07;13.65;;;2.65;;
76113;SDS011;64845;53.086;5.834;2022-11-24T08:36:32;11.20;;;3.03;;
76113;SDS011;64845;53.086;5.834;2022-11-24T08:38:59;10.63;;;2.90;;
76113;SDS011;64845;53.086;5.834;2022-11-24T08:41:25;12.02;;;2.40;;
76113;SDS011;64845;53.086;5.834;2022-11-24T08:43:52;12.07;;;2.67;;
76113;SDS011;64845;53.086;5.834;2022-11-24T08:46:18;10.20;;;2.65;;
76113;SDS011;64845;53.086;5.834;2022-11-24T08:48:47;8.27;;;2.00;;
76113;SDS011;64845;53.086;5.834;2022-11-24T08:51:14;7.38;;;2.17;;
76113;SDS011;64845;53.086;5.834;2022-11-24T08:53:41;13.40;;;2.53;;
76113;SDS011;64845;53.086;5.834;2022-11-24T08:56:08;6.78;;;1.77;;
76113;SDS011;64845;53.086;5.834;2022-11-24T08:58:34;5.78;;;1.70;;
76113;SDS011;64845;53.086;5.834;2022-11-24T09:01:08;11.45;;;2.00;;
76113;SDS011;64845;53.086;5.834;2022-11-24T09:03:35;9.38;;;1.55;;
76113;SDS011;64845;53.086;5.834;2022-11-24T09:06:01;7.47;;;1.67;;
76113;SDS011;64845;53.086;5.834;2022-11-24T09:08:28;12.05;;;1.48;;
76113;SDS011;64845;53.086;5.834;2022-11-24T09:10:58;6.22;;;1.30;;
76113;SDS011;64845;53.086;5.834;2022-11-24T09:13:24;12.45;;;1.33;;
76113;SDS011;64845;53.086;5.834;2022-11-24T09:15:50;7.28;;;1.67;;
76113;SDS011;64845;53.086;5.834;2022-11-24T09:18:15;8.52;;;1.35;;
76113;SDS011;64845;53.086;5.834;2022-11-24T09:20:40;6.25;;;1.40;;
76113;SDS011;64845;53.086;5.834;2022-11-24T09:23:06;6.65;;;1.38;;
76113;SDS011;64845;53.086;5.834;2022-11-24T09:25:31;13.85;;;1.85;;
76113;SDS011;64845;53.086;5.834;2022-11-24T09:27:57;6.90;;;1.25;;
76113;SDS011;64845;53.086;5.834;2022-11-24T09:30:23;7.22;;;1.65;;
76113;SDS011;64845;53.086;5.834;2022-11-24T09:32:49;11.05;;;1.77;;
76113;SDS011;64845;53.086;5.834;2022-11-24T09:35:14;7.93;;;2.55;;
76113;SDS011;64845;53.086;5.834;2022-11-24T09:37:40;10.57;;;1.73;;
76113;SDS011;64845;53.086;5.834;2022-11-24T09:40:09;9.70;;;2.40;;
76113;SDS011;64845;53.086;5.834;2022-11-24T09:42:51;10.05;;;2.30;;
76113;SDS011;64845;53.086;5.834;2022-11-24T09:53:19;9.10;;;2.67;;
76113;SDS011;64845;53.086;5.834;2022-11-24T09:55:54;11.60;;;3.28;;
76113;SDS011;64845;53.086;5.834;2022-11-24T10:01:23;7.17;;;3.10;;
76113;SDS011;64845;53.086;5.834;2022-11-24T10:06:26;9.27;;;3.28;;
76113;SDS011;64845;53.086;5.834;2022-11-24T10:22:42;9.32;;;3.80;;
76113;SDS011;64845;53.086;5.834;2022-11-24T10:28:10;9.00;;;3.85;;
76113;SDS011;64845;53.086;5.834;2022-11-24T10:30:38;10.45;;;4.13;;
76113;SDS011;64845;53.086;5.834;2022-11-24T10:33:11;13.93;;;4.18;;
76113;SDS011;64845;53.086;5.834;2022-11-24T10:36:03;11.55;;;4.47;;
76113;SDS011;64845;53.086;5.834;2022-11-24T10:41:46;10.07;;;3.55;;
76113;SDS011;64845;53.086;5.834;2022-11-24T10:44:21;16.25;;;4.18;;
76113;SDS011;64845;53.086;5.834;2022-11-24T10:46:47;10.27;;;3.40;;
76113;SDS011;64845;53.086;5.834;2022-11-24T10:49:23;16.13;;;4.28;;
76113;SDS011;64845;53.086;5.834;2022-11-24T10:54:25;9.55;;;3.47;;
76113;SDS011;64845;53.086;5.834;2022-11-24T10:56:51;15.02;;;4.47;;
76113;SDS011;64845;53.086;5.834;2022-11-24T10:59:38;12.55;;;3.70;;
76113;SDS011;64845;53.086;5.834;2022-11-24T11:04:56;13.40;;;3.90;;
76113;SDS011;64845;53.086;5.834;2022-11-24T11:07:23;12.98;;;4.00;;
76113;SDS011;64845;53.086;5.834;2022-11-24T11:09:50;11.40;;;3.92;;
76113;SDS011;64845;53.086;5.834;2022-11-24T11:12:41;9.68;;;3.60;;
76113;SDS011;64845;53.086;5.834;2022-11-24T11:15:22;15.05;;;4.30;;
76113;SDS011;64845;53.086;5.834;2022-11-24T11:17:54;11.65;;;4.03;;
76113;SDS011;64845;53.086;5.834;2022-11-24T11:20:24;13.82;;;4.68;;
76113;SDS011;64845;53.086;5.834;2022-11-24T11:22:52;12.15;;;4.40;;
76113;SDS011;64845;53.086;5.834;2022-11-24T11:25:33;14.48;;;4.70;;
76113;SDS011;64845;53.086;5.834;2022-11-24T11:28:10;14.73;;;4.20;;
76113;SDS011;64845;53.086;5.834;2022-11-24T11:30:40;16.27;;;4.25;;
76113;SDS011;64845;53.086;5.834;2022-11-24T11:33:24;18.00;;;4.72;;
76113;SDS011;64845;53.086;5.834;2022-11-24T11:35:52;12.32;;;4.57;;
76113;SDS011;64845;53.086;5.834;2022-11-24T11:38:19;12.82;;;3.72;;
76113;SDS011;64845;53.086;5.834;2022-11-24T11:40:44;19.00;;;4.13;;
76113;SDS011;64845;53.086;5.834;2022-11-24T11:43:20;16.05;;;4.55;;
76113;SDS011;64845;53.086;5.834;2022-11-24T11:45:50;13.77;;;4.97;;
76113;SDS011;64845;53.086;5.834;2022-11-24T11:48:27;15.80;;;3.75;;
76113;SDS011;64845;53.086;5.834;2022-11-24T11:59:12;18.02;;;3.58;;
76113;SDS011;64845;53.086;5.834;2022-11-24T12:05:01;16.38;;;3.03;;
76113;SDS011;64845;53.086;5.834;2022-11-24T12:11:19;14.65;;;2.92;;
76113;SDS011;64845;53.086;5.834;2022-11-24T12:22:43;18.95;;;3.08;;
76113;SDS011;64845;53.086;5.834;2022-11-24T12:25:10;17.35;;;2.88;;
76113;SDS011;64845;53.086;5.834;2022-11-24T12:28:24;12.75;;;2.83;;
76113;SDS011;64845;53.086;5.834;2022-11-24T12:36:02;16.27;;;3.20;;
76113;SDS011;64845;53.086;5.834;2022-11-24T12:38:46;13.02;;;2.80;;
76113;SDS011;64845;53.086;5.834;2022-11-24T12:51:37;16.23;;;2.75;;
76113;SDS011;64845;53.086;5.834;2022-11-24T12:54:08;18.75;;;2.60;;
76113;SDS011;64845;53.086;5.834;2022-11-24T12:57:01;21.42;;;3.10;;
76113;SDS011;64845;53.086;5.834;2022-11-24T12:59:44;18.45;;;2.75;;
76113;SDS011;64845;53.086;5.834;2022-11-24T13:05:04;21.20;;;3.30;;
76113;SDS011;64845;53.086;5.834;2022-11-24T13:15:18;13.75;;;2.72;;
76113;SDS011;64845;53.086;5.834;2022-11-24T13:17:44;17.77;;;3.00;;
76113;SDS011;64845;53.086;5.834;2022-11-24T13:23:03;18.65;;;2.60;;
76113;SDS011;64845;53.086;5.834;2022-11-24T13:25:33;23.45;;;2.97;;
76113;SDS011;64845;53.086;5.834;2022-11-24T13:28:03;19.73;;;4.00;;
76113;SDS011;64845;53.086;5.834;2022-11-24T13:41:28;29.67;;;3.28;;
76113;SDS011;64845;53.086;5.834;2022-11-24T13:49:35;20.75;;;3.05;;
76113;SDS011;64845;53.086;5.834;2022-11-24T13:55:39;20.67;;;2.92;;
76113;SDS011;64845;53.086;5.834;2022-11-24T14:00:34;16.73;;;2.72;;
76113;SDS011;64845;53.086;5.834;2022-11-24T14:03:30;18.77;;;3.35;;
76113;SDS011;64845;53.086;5.834;2022-11-24T14:06:02;26.58;;;3.00;;
76113;SDS011;64845;53.086;5.834;2022-11-24T14:08:32;22.83;;;3.05;;
76113;SDS011;64845;53.086;5.834;2022-11-24T14:11:00;24.20;;;3.22;;
76113;SDS011;64845;53.086;5.834;2022-11-24T14:13:29;16.58;;;2.85;;
76113;SDS011;64845;53.086;5.834;2022-11-24T14:16:11;21.20;;;2.95;;
76113;SDS011;64845;53.086;5.834;2022-11-24T14:18:45;30.48;;;3.92;;
76113;SDS011;64845;53.086;5.834;2022-11-24T14:21:25;18.27;;;2.88;;
76113;SDS011;64845;53.086;5.834;2022-11-24T14:23:56;24.48;;;3.35;;
76113;SDS011;64845;53.086;5.834;2022-11-24T14:26:34;16.58;;;3.17;;
76113;SDS011;64845;53.086;5.834;2022-11-24T14:29:20;19.35;;;2.80;;
76113;SDS011;64845;53.086;5.834;2022-11-24T14:31:55;16.90;;;2.53;;
76113;SDS011;64845;53.086;5.834;2022-11-24T14:34:22;16.50;;;2.92;;
76113;SDS011;64845;53.086;5.834;2022-11-24T14:36:50;25.40;;;2.90;;
76113;SDS011;64845;53.086;5.834;2022-11-24T14:39:21;20.77;;;3.22;;
76113;SDS011;64845;53.086;5.834;2022-11-24T14:41:50;17.55;;;2.85;;
76113;SDS011;64845;53.086;5.834;2022-11-24T14:44:22;21.77;;;3.15;;
76113;SDS011;64845;53.086;5.834;2022-11-24T14:46:50;30.92;;;3.35;;
76113;SDS011;64845;53.086;5.834;2022-11-24T14:49:28;24.75;;;4.20;;
76113;SDS011;64845;53.086;5.834;2022-11-24T14:51:56;16.77;;;2.78;;
76113;SDS011;64845;53.086;5.834;2022-11-24T14:54:25;17.27;;;2.85;;
76113;SDS011;64845;53.086;5.834;2022-11-24T14:57:01;16.85;;;2.80;;
76113;SDS011;64845;53.086;5.834;2022-11-24T14:59:32;18.85;;;2.53;;
76113;SDS011;64845;53.086;5.834;2022-11-24T15:02:00;20.92;;;3.05;;
76113;SDS011;64845;53.086;5.834;2022-11-24T15:04:26;15.82;;;2.85;;
76113;SDS011;64845;53.086;5.834;2022-11-24T15:17:43;15.20;;;2.30;;
76113;SDS011;64845;53.086;5.834;2022-11-24T15:20:27;18.70;;;2.95;;
76113;SDS011;64845;53.086;5.834;2022-11-24T15:25:43;17.67;;;3.28;;
76113;SDS011;64845;53.086;5.834;2022-11-24T15:28:08;14.75;;;2.80;;
76113;SDS011;64845;53.086;5.834;2022-11-24T15:30:34;22.02;;;3.42;;
76113;SDS011;64845;53.086;5.834;2022-11-24T15:33:01;19.17;;;3.28;;
76113;SDS011;64845;53.086;5.834;2022-11-24T15:35:30;21.05;;;4.43;;
76113;SDS011;64845;53.086;5.834;2022-11-24T15:37:56;24.60;;;3.70;;
76113;SDS011;64845;53.086;5.834;2022-11-24T15:40:23;24.63;;;3.80;;
76113;SDS011;64845;53.086;5.834;2022-11-24T15:42:49;21.00;;;3.70;;
76113;SDS011;64845;53.086;5.834;2022-11-24T15:45:16;19.20;;;4.00;;
76113;SDS011;64845;53.086;5.834;2022-11-24T15:47:43;18.20;;;3.55;;
76113;SDS011;64845;53.086;5.834;2022-11-24T15:50:08;19.17;;;3.38;;
76113;SDS011;64845;53.086;5.834;2022-11-24T15:52:34;16.60;;;3.28;;
76113;SDS011;64845;53.086;5.834;2022-11-24T15:54:59;20.42;;;5.07;;
76113;SDS011;64845;53.086;5.834;2022-11-24T15:57:25;25.90;;;5.50;;
76113;SDS011;64845;53.086;5.834;2022-11-24T15:59:51;21.05;;;5.47;;
76113;SDS011;64845;53.086;5.834;2022-11-24T16:02:17;27.13;;;4.50;;
76113;SDS011;64845;53.086;5.834;2022-11-24T16:04:45;29.25;;;8.25;;
76113;SDS011;64845;53.086;5.834;2022-11-24T16:07:11;18.55;;;5.07;;
76113;SDS011;64845;53.086;5.834;2022-11-24T16:09:36;22.63;;;5.95;;
76113;SDS011;64845;53.086;5.834;2022-11-24T16:12:02;24.83;;;6.35;;
76113;SDS011;64845;53.086;5.834;2022-11-24T16:14:28;36.72;;;8.57;;
76113;SDS011;64845;53.086;5.834;2022-11-24T16:16:54;35.60;;;6.35;;
76113;SDS011;64845;53.086;5.834;2022-11-24T16:19:19;27.10;;;5.00;;
76113;SDS011;64845;53.086;5.834;2022-11-24T16:21:47;22.30;;;6.93;;
76113;SDS011;64845;53.086;5.834;2022-11-24T16:24:13;24.83;;;5.05;;
76113;SDS011;64845;53.086;5.834;2022-11-24T16:26:38;23.88;;;4.60;;
76113;SDS011;64845;53.086;5.834;2022-11-24T16:29:04;27.98;;;5.25;;
76113;SDS011;64845;53.086;5.834;2022-11-24T16:31:30;26.92;;;4.25;;
76113;SDS011;64845;53.086;5.834;2022-11-24T16:33:55;21.80;;;4.10;;
76113;SDS011;64845;53.086;5.834;2022-11-24T16:36:21;23.92;;;4.40;;
76113;SDS011;64845;53.086;5.834;2022-11-24T16:38:46;29.85;;;4.57;;
76113;SDS011;64845;53.086;5.834;2022-11-24T16:41:12;24.70;;;4.45;;
76113;SDS011;64845;53.086;5.834;2022-11-24T16:43:37;24.40;;;4.30;;
76113;SDS011;64845;53.086;5.834;2022-11-24T16:46:19;25.40;;;5.93;;
76113;SDS011;64845;53.086;5.834;2022-11-24T16:48:46;28.70;;;4.32;;
76113;SDS011;64845;53.086;5.834;2022-11-24T16:51:13;24.45;;;4.43;;
76113;SDS011;64845;53.086;5.834;2022-11-24T16:53:39;29.23;;;6.82;;
76113;SDS011;64845;53.086;5.834;2022-11-24T16:56:05;23.05;;;4.55;;
76113;SDS011;64845;53.086;5.834;2022-11-24T16:58:31;22.15;;;3.55;;
76113;SDS011;64845;53.086;5.834;2022-11-24T17:01:07;26.00;;;4.07;;
76113;SDS011;64845;53.086;5.834;2022-11-24T17:03:34;29.00;;;5.13;;